createdAt,value
2023-03-21T00:00:58.219Z,12.14
2023-03-21T00:03:27.248Z,12.07
2023-03-21T00:05:55.431Z,12.03
2023-03-21T00:08:25.740Z,11.98
2023-03-21T00:10:58.633Z,11.78
2023-03-21T00:13:32.605Z,11.98
2023-03-21T00:16:19.195Z,12.00
2023-03-21T00:18:55.679Z,12.09
2023-03-21T00:24:17.766Z,11.90
2023-03-21T00:26:46.294Z,11.95
2023-03-21T00:29:15.613Z,10.68
2023-03-21T00:31:43.535Z,11.90
2023-03-21T00:36:44.488Z,11.91
2023-03-21T00:39:12.525Z,11.85
2023-03-21T00:41:43.137Z,11.84
2023-03-21T00:44:13.916Z,11.81
2023-03-21T00:46:51.650Z,11.75
2023-03-21T00:49:29.503Z,11.58
2023-03-21T00:51:59.532Z,11.66
2023-03-21T00:54:33.811Z,11.18
2023-03-21T00:57:01.745Z,11.47
2023-03-21T00:59:36.360Z,11.39
2023-03-21T01:02:07.400Z,11.42
2023-03-21T01:04:35.718Z,11.41
2023-03-21T01:07:03.543Z,11.30
2023-03-21T01:09:32.695Z,11.13
2023-03-21T01:12:01.058Z,11.31
2023-03-21T01:14:33.122Z,11.30
2023-03-21T01:17:02.381Z,11.36
2023-03-21T01:19:50.316Z,11.45
2023-03-21T01:22:20.733Z,11.54
2023-03-21T01:25:05.731Z,11.45
2023-03-21T01:27:36.811Z,11.51
2023-03-21T01:30:11.279Z,11.61
2023-03-21T01:32:45.395Z,11.70
2023-03-21T01:35:14.891Z,11.53
2023-03-21T01:37:43.670Z,11.44
2023-03-21T01:40:18.782Z,11.08
2023-03-21T01:42:49.271Z,11.01
2023-03-21T01:45:56.070Z,10.86
2023-03-21T01:48:27.850Z,10.82
2023-03-21T01:51:02.293Z,10.86
2023-03-21T01:53:38.628Z,10.84
2023-03-21T01:56:22.843Z,10.85
2023-03-21T01:58:57.805Z,10.89
2023-03-21T02:05:04.011Z,10.91
2023-03-21T02:08:25.866Z,10.86
2023-03-21T02:11:27.167Z,10.87
2023-03-21T02:20:42.834Z,11.25
2023-03-21T02:23:53.226Z,10.97
2023-03-21T02:27:04.325Z,10.52
2023-03-21T02:30:45.587Z,11.02
2023-03-21T02:33:57.693Z,10.83
2023-03-21T02:36:42.941Z,10.64
2023-03-21T02:42:33.276Z,10.51
2023-03-21T02:46:24.221Z,10.18
2023-03-21T02:49:45.118Z,10.30
2023-03-21T02:56:04.122Z,10.73
2023-03-21T02:59:12.493Z,10.78
2023-03-21T03:05:02.865Z,9.77
2023-03-21T03:08:35.771Z,10.14
2023-03-21T03:15:35.485Z,10.53
2023-03-21T03:18:16.051Z,10.59
2023-03-21T03:20:59.794Z,10.63
2023-03-21T03:30:29.659Z,10.63
2023-03-21T03:33:20.454Z,10.59
2023-03-21T03:36:30.448Z,10.52
2023-03-21T03:42:25.241Z,10.34
2023-03-21T03:45:04.279Z,10.23
2023-03-21T03:47:57.063Z,10.14
2023-03-21T03:50:33.755Z,10.17
2023-03-21T03:53:18.073Z,10.10
2023-03-21T03:55:54.811Z,10.04
2023-03-21T04:17:34.294Z,7.30
2023-03-21T04:27:43.783Z,9.65
2023-03-21T04:33:28.467Z,9.46
2023-03-21T04:36:26.887Z,9.34
2023-03-21T04:42:45.419Z,9.37
2023-03-21T04:46:31.971Z,9.61
2023-03-21T04:53:35.046Z,9.66
2023-03-21T05:00:09.142Z,9.84
2023-03-21T05:03:08.245Z,9.64
2023-03-21T05:06:26.630Z,9.58
2023-03-21T05:15:49.817Z,8.14
2023-03-21T05:18:36.651Z,8.74
2023-03-21T05:21:52.330Z,8.92
2023-03-21T05:24:41.155Z,9.42
2023-03-21T05:27:49.607Z,5.25
2023-03-21T05:30:47.951Z,9.81
2023-03-21T05:33:15.942Z,10.11
2023-03-21T05:35:47.801Z,10.04
2023-03-21T05:38:21.342Z,9.98
2023-03-21T05:40:52.105Z,10.14
2023-03-21T05:43:20.051Z,10.20
2023-03-21T05:45:48.408Z,10.14
2023-03-21T05:48:16.524Z,10.08
2023-03-21T05:50:44.460Z,10.19
2023-03-21T05:53:12.476Z,10.37
2023-03-21T05:55:44.909Z,10.50
2023-03-21T05:58:16.707Z,10.72
2023-03-21T06:00:49.476Z,10.02
2023-03-21T06:03:30.912Z,11.04
2023-03-21T06:06:11.707Z,10.90
2023-03-21T06:11:49.499Z,11.08
2023-03-21T06:14:26.364Z,11.77
2023-03-21T06:17:02.623Z,11.90
2023-03-21T06:19:34.863Z,12.14
2023-03-21T06:22:03.391Z,11.29
2023-03-21T06:24:46.302Z,12.19
2023-03-21T06:27:32.622Z,12.15
2023-03-21T06:30:14.654Z,11.90
2023-03-21T06:32:55.891Z,11.66
2023-03-21T06:35:36.938Z,12.00
2023-03-21T06:38:13.351Z,12.13
2023-03-21T06:40:47.116Z,12.00
2023-03-21T06:43:24.668Z,11.79
2023-03-21T06:46:09.669Z,11.96
2023-03-21T06:48:50.239Z,11.81
2023-03-21T06:51:22.912Z,11.71
2023-03-21T06:54:05.698Z,10.60
2023-03-21T06:57:02.822Z,11.29
2023-03-21T06:59:38.479Z,11.31
2023-03-21T07:02:16.598Z,11.24
2023-03-21T07:04:47.529Z,11.25
2023-03-21T07:07:21.575Z,10.82
2023-03-21T07:09:53.495Z,11.43
2023-03-21T07:12:23.317Z,11.56
2023-03-21T07:14:53.415Z,11.81
2023-03-21T07:17:21.615Z,12.02
2023-03-21T07:19:49.563Z,12.10
2023-03-21T07:22:18.679Z,12.10
2023-03-21T07:25:02.401Z,12.35
2023-03-21T07:27:34.914Z,11.78
2023-03-21T07:30:05.061Z,12.14
2023-03-21T07:32:35.592Z,12.21
2023-03-21T07:35:04.375Z,12.26
2023-03-21T07:37:43.430Z,12.41
2023-03-21T07:40:18.466Z,12.60
2023-03-21T07:42:47.131Z,12.77
2023-03-21T07:45:23.363Z,12.90
2023-03-21T07:47:52.137Z,12.86
2023-03-21T07:50:22.168Z,12.76
2023-03-21T07:52:50.522Z,12.86
2023-03-21T07:55:18.800Z,13.20
2023-03-21T07:57:47.204Z,13.37
2023-03-21T08:00:23.235Z,13.36
2023-03-21T08:02:58.856Z,13.60
2023-03-21T08:05:29.940Z,13.68
2023-03-21T08:07:58.616Z,14.02
2023-03-21T08:10:29.268Z,13.92
2023-03-21T08:12:57.467Z,14.03
2023-03-21T08:15:26.936Z,13.99
2023-03-21T08:17:54.853Z,13.87
2023-03-21T08:20:24.004Z,13.48
2023-03-21T08:22:52.309Z,14.08
2023-03-21T08:25:22.313Z,14.41
2023-03-21T08:27:51.552Z,14.46
2023-03-21T08:30:22.556Z,14.62
2023-03-21T08:32:52.424Z,14.73
2023-03-21T08:35:21.571Z,14.83
2023-03-21T08:37:53.346Z,14.98
2023-03-21T08:40:21.693Z,15.03
2023-03-21T08:42:49.683Z,15.17
2023-03-21T08:45:19.255Z,15.19
2023-03-21T08:47:47.460Z,15.10
2023-03-21T08:50:19.371Z,14.86
2023-03-21T08:52:47.274Z,15.03
2023-03-21T08:55:17.069Z,15.07
2023-03-21T08:57:45.862Z,15.16
2023-03-21T09:00:17.335Z,15.22
2023-03-21T09:02:46.813Z,15.13
2023-03-21T09:05:16.974Z,15.23
2023-03-21T09:07:45.445Z,15.22
2023-03-21T09:10:21.105Z,14.76
2023-03-21T09:12:50.606Z,14.62
2023-03-21T09:15:21.746Z,14.89
2023-03-21T09:17:52.773Z,15.16
2023-03-21T09:20:26.308Z,15.35
2023-03-21T09:22:55.309Z,15.46
2023-03-21T09:25:23.832Z,15.33
2023-03-21T09:27:52.450Z,15.32
2023-03-21T09:30:24.194Z,15.42
2023-03-21T09:32:55.600Z,15.47
2023-03-21T09:35:27.127Z,15.37
2023-03-21T09:37:59.003Z,15.89
2023-03-21T09:40:41.513Z,16.02
2023-03-21T09:43:23.463Z,16.05
2023-03-21T09:45:58.758Z,16.28
2023-03-21T09:48:54.359Z,16.21
2023-03-21T09:51:29.409Z,16.10
2023-03-21T09:54:01.030Z,16.00
2023-03-21T09:56:29.329Z,15.44
2023-03-21T09:59:01.424Z,16.19
2023-03-21T10:01:35.292Z,15.86
2023-03-21T10:04:06.668Z,15.70
2023-03-21T10:06:41.183Z,15.45
2023-03-21T10:09:15.477Z,15.76
2023-03-21T10:11:46.201Z,16.13
2023-03-21T10:14:19.594Z,16.27
2023-03-21T10:16:51.060Z,16.35
2023-03-21T10:19:21.400Z,16.46
2023-03-21T10:22:02.409Z,16.98
2023-03-21T10:24:34.323Z,17.63
2023-03-21T10:27:03.812Z,18.11
2023-03-21T10:29:37.786Z,18.39
2023-03-21T10:32:10.366Z,18.79
2023-03-21T10:34:42.664Z,19.59
2023-03-21T10:37:13.957Z,19.98
2023-03-21T10:39:43.250Z,19.98
2023-03-21T10:42:19.962Z,19.57
2023-03-21T10:44:49.846Z,19.42
2023-03-21T10:47:23.303Z,19.33
2023-03-21T10:50:10.357Z,19.67
2023-03-21T10:52:46.956Z,19.35
2023-03-21T10:55:28.794Z,18.96
2023-03-21T10:58:00.490Z,19.18
2023-03-21T11:00:31.450Z,19.54
2023-03-21T11:02:59.918Z,19.76
2023-03-21T11:05:35.203Z,19.47
2023-03-21T11:08:08.007Z,19.27
2023-03-21T11:10:52.306Z,18.73
2023-03-21T11:13:26.239Z,19.71
2023-03-21T11:15:56.507Z,19.74
2023-03-21T11:18:27.618Z,19.64
2023-03-21T11:20:58.036Z,19.56
2023-03-21T11:23:30.812Z,18.91
2023-03-21T11:26:01.225Z,19.20
2023-03-21T11:28:37.532Z,19.06
2023-03-21T11:31:09.210Z,19.65
2023-03-21T11:33:40.338Z,20.18
2023-03-21T11:36:26.218Z,20.66
2023-03-21T11:38:58.589Z,19.92
2023-03-21T11:41:30.478Z,20.28
2023-03-21T11:43:59.448Z,19.94
2023-03-21T11:46:29.202Z,19.97
2023-03-21T11:48:58.552Z,19.75
2023-03-21T11:51:34.819Z,19.66
2023-03-21T11:54:13.473Z,19.13
2023-03-21T11:56:45.399Z,19.32
2023-03-21T11:59:37.309Z,19.39
2023-03-21T12:02:23.267Z,19.49
2023-03-21T12:04:56.057Z,19.65
2023-03-21T12:07:37.729Z,19.23
2023-03-21T12:10:38.155Z,19.41
2023-03-21T12:13:19.160Z,19.17
2023-03-21T12:15:56.440Z,18.97
2023-03-21T12:19:00.396Z,18.67
2023-03-21T12:21:34.960Z,18.57
2023-03-21T12:24:08.862Z,18.45
2023-03-21T12:26:45.004Z,18.45
2023-03-21T12:29:37.602Z,18.43
2023-03-21T12:32:19.288Z,18.28
2023-03-21T12:35:02.924Z,18.65
2023-03-21T12:37:38.260Z,18.87
2023-03-21T12:40:16.149Z,18.86
2023-03-21T12:43:08.527Z,18.87
2023-03-21T12:45:47.067Z,18.57
2023-03-21T12:48:24.655Z,18.77
2023-03-21T12:50:55.894Z,19.06
2023-03-21T12:53:36.177Z,18.71
2023-03-21T12:56:09.305Z,18.61
2023-03-21T12:58:47.050Z,18.07
2023-03-21T13:01:19.226Z,18.41
2023-03-21T13:03:54.317Z,18.58
2023-03-21T13:06:26.956Z,18.43
2023-03-21T13:08:59.404Z,18.62
2023-03-21T13:11:31.492Z,18.40
2023-03-21T13:14:06.411Z,18.70
2023-03-21T13:16:38.692Z,18.87
2023-03-21T13:19:19.467Z,18.68
2023-03-21T13:21:55.927Z,18.53
2023-03-21T13:24:30.278Z,18.61
2023-03-21T13:27:06.732Z,18.45
2023-03-21T13:29:44.328Z,18.91
2023-03-21T13:32:21.895Z,18.61
2023-03-21T13:34:56.378Z,18.63
2023-03-21T13:37:27.745Z,18.67
2023-03-21T13:40:02.318Z,18.79
2023-03-21T13:42:34.407Z,18.68
2023-03-21T13:45:10.727Z,18.81
2023-03-21T13:47:54.414Z,18.79
2023-03-21T13:50:25.661Z,18.52
2023-03-21T13:53:21.621Z,18.53
2023-03-21T13:56:00.504Z,18.46
2023-03-21T13:58:37.983Z,18.34
2023-03-21T14:01:23.954Z,18.36
2023-03-21T14:03:59.595Z,18.31
2023-03-21T14:06:35.435Z,18.31
2023-03-21T14:09:04.244Z,18.31
2023-03-21T14:11:41.972Z,18.22
2023-03-21T14:14:12.339Z,18.24
2023-03-21T14:16:42.687Z,18.17
2023-03-21T14:19:12.992Z,18.01
2023-03-21T14:21:48.490Z,17.88
2023-03-21T14:24:17.642Z,17.80
2023-03-21T14:26:48.326Z,17.77
2023-03-21T14:29:25.989Z,17.66
2023-03-21T14:31:57.494Z,17.60
2023-03-21T14:34:27.644Z,17.04
2023-03-21T14:36:58.493Z,17.57
2023-03-21T14:39:30.867Z,17.50
2023-03-21T14:42:05.100Z,17.54
2023-03-21T14:44:53.460Z,17.46
2023-03-21T14:47:27.818Z,17.46
2023-03-21T14:49:57.078Z,17.39
2023-03-21T14:52:27.304Z,17.31
2023-03-21T14:54:56.730Z,17.37
2023-03-21T14:57:29.134Z,17.20
2023-03-21T15:00:02.307Z,17.26
2023-03-21T15:02:37.152Z,17.22
2023-03-21T15:05:15.750Z,16.96
2023-03-21T15:07:43.839Z,17.00
2023-03-21T15:10:19.145Z,16.88
2023-03-21T15:12:54.943Z,16.90
2023-03-21T15:15:36.651Z,16.89
2023-03-21T15:18:07.990Z,16.80
2023-03-21T15:20:39.221Z,16.64
2023-03-21T15:23:11.502Z,16.48
2023-03-21T15:25:40.263Z,16.50
2023-03-21T15:28:08.619Z,16.46
2023-03-21T15:30:36.591Z,16.54
2023-03-21T15:33:11.656Z,16.53
2023-03-21T15:35:42.575Z,16.54
2023-03-21T15:38:24.057Z,16.22
2023-03-21T15:40:52.240Z,16.05
2023-03-21T15:43:21.472Z,16.51
2023-03-21T15:45:50.937Z,16.26
2023-03-21T15:48:23.332Z,16.38
2023-03-21T15:50:58.834Z,16.29
2023-03-21T15:53:27.109Z,15.96
2023-03-21T15:56:02.000Z,15.49
2023-03-21T15:58:39.512Z,15.29
2023-03-21T16:01:12.762Z,15.08
2023-03-21T16:03:46.192Z,15.04
2023-03-21T16:06:19.914Z,14.79
2023-03-21T16:08:50.308Z,14.87
2023-03-21T16:11:24.600Z,14.63
2023-03-21T16:13:54.515Z,14.64
2023-03-21T16:16:26.138Z,14.46
2023-03-21T16:18:57.116Z,14.07
2023-03-21T16:21:28.593Z,13.79
2023-03-21T16:26:52.880Z,13.17
2023-03-21T16:29:21.337Z,13.32
2023-03-21T16:31:50.088Z,13.21
2023-03-21T16:34:19.470Z,13.23
2023-03-21T16:36:55.795Z,13.18
2023-03-21T16:39:27.754Z,12.69
2023-03-21T16:41:58.811Z,12.72
2023-03-21T16:44:40.393Z,12.81
2023-03-21T16:47:19.209Z,12.55
2023-03-21T16:49:56.631Z,12.65
2023-03-21T16:52:26.401Z,12.51
2023-03-21T16:55:01.544Z,12.57
2023-03-21T16:57:34.542Z,12.11
2023-03-21T17:00:08.285Z,12.57
2023-03-21T17:05:55.431Z,12.17
2023-03-21T17:08:56.695Z,12.59
2023-03-21T17:12:01.228Z,12.51
2023-03-21T17:14:54.068Z,12.44
2023-03-21T17:20:44.730Z,12.37
2023-03-21T17:23:51.084Z,12.24
2023-03-21T17:26:31.496Z,12.35
2023-03-21T17:29:07.035Z,12.27
2023-03-21T17:34:35.382Z,12.17
2023-03-21T17:37:28.107Z,12.18
2023-03-21T17:43:40.528Z,12.16
2023-03-21T17:46:16.462Z,12.00
2023-03-21T17:48:51.036Z,11.99
2023-03-21T17:51:33.168Z,12.08
2023-03-21T17:54:09.409Z,12.08
2023-03-21T17:56:55.284Z,11.99
2023-03-21T17:59:46.863Z,11.97
2023-03-21T18:02:22.455Z,11.90
2023-03-21T18:05:08.366Z,11.91
2023-03-21T18:08:09.882Z,11.88
2023-03-21T18:10:43.484Z,11.88
2023-03-21T18:13:29.045Z,11.92
2023-03-21T18:16:14.864Z,11.88
2023-03-21T18:18:57.586Z,10.81
2023-03-21T18:21:32.891Z,11.86
2023-03-21T18:24:10.522Z,11.85
2023-03-21T18:26:43.427Z,11.83
2023-03-21T18:32:23.882Z,11.68
2023-03-21T18:35:23.477Z,11.75
2023-03-21T18:38:05.980Z,11.70
2023-03-21T18:41:03.820Z,8.69
2023-03-21T18:44:05.323Z,11.46
2023-03-21T18:46:46.892Z,10.85
2023-03-21T18:54:57.661Z,10.94
2023-03-21T18:57:45.979Z,11.48
2023-03-21T19:03:34.743Z,11.34
2023-03-21T19:06:19.025Z,11.35
2023-03-21T19:08:52.865Z,11.30
2023-03-21T19:11:23.197Z,11.28
2023-03-21T19:13:53.198Z,11.34
2023-03-21T19:16:26.497Z,11.28
2023-03-21T19:18:58.078Z,11.21
2023-03-21T19:21:27.594Z,11.13
2023-03-21T19:26:47.184Z,11.00
2023-03-21T19:29:19.838Z,10.90
2023-03-21T19:31:49.612Z,10.70
2023-03-21T19:34:17.932Z,10.60
2023-03-21T19:36:51.452Z,10.41
2023-03-21T19:39:24.759Z,10.26
2023-03-21T19:42:14.696Z,10.33
2023-03-21T19:44:46.923Z,10.33
2023-03-21T19:47:16.658Z,10.22
2023-03-21T19:52:37.535Z,10.20
2023-03-21T19:55:07.015Z,10.16
2023-03-21T19:57:39.027Z,10.08
2023-03-21T20:00:13.896Z,10.03
2023-03-21T20:02:45.524Z,10.01
2023-03-21T20:05:15.592Z,10.02
2023-03-21T20:07:45.622Z,9.89
2023-03-21T20:10:13.649Z,9.96
2023-03-21T20:12:42.844Z,9.90
2023-03-21T20:15:20.905Z,9.85
2023-03-21T20:17:52.938Z,9.88
2023-03-21T20:20:23.951Z,9.84
2023-03-21T20:23:07.294Z,9.77
2023-03-21T20:25:44.186Z,9.73
2023-03-21T20:28:54.867Z,9.70
2023-03-21T20:31:31.652Z,9.69
2023-03-21T20:34:28.486Z,9.70
2023-03-21T20:37:08.500Z,9.70
2023-03-21T20:40:03.974Z,9.72
2023-03-21T20:42:37.281Z,9.70
2023-03-21T20:45:15.984Z,9.69
2023-03-21T20:47:48.648Z,9.69
2023-03-21T20:50:22.005Z,9.69
2023-03-21T20:53:05.917Z,9.70
2023-03-21T20:55:36.553Z,9.71
2023-03-21T20:58:26.797Z,9.65
2023-03-21T21:00:56.375Z,9.65
2023-03-21T21:03:24.793Z,9.68
2023-03-21T21:05:54.151Z,9.73
2023-03-21T21:08:22.009Z,9.71
2023-03-21T21:11:30.190Z,9.67
2023-03-21T21:13:39.300Z,9.64
2023-03-21T21:16:10.730Z,9.67
2023-03-21T21:18:38.659Z,9.66
2023-03-21T21:21:08.708Z,9.71
2023-03-21T21:23:38.371Z,9.78
2023-03-21T21:26:09.802Z,9.74
2023-03-21T21:28:38.448Z,9.62
2023-03-21T21:31:15.169Z,9.63
2023-03-21T21:33:46.684Z,9.60
2023-03-21T21:36:24.584Z,9.59
2023-03-21T21:38:59.380Z,9.61
2023-03-21T21:41:42.832Z,9.60
2023-03-21T21:44:18.838Z,9.48
2023-03-21T21:46:47.267Z,9.47
2023-03-21T21:49:15.285Z,9.46
2023-03-21T21:51:43.196Z,9.30
2023-03-21T21:54:18.067Z,9.14
2023-03-21T21:56:55.215Z,8.99
2023-03-21T21:59:26.035Z,8.88
2023-03-21T22:01:59.616Z,8.81
2023-03-21T22:04:31.858Z,8.74
2023-03-21T22:07:06.699Z,8.46
2023-03-21T22:09:34.643Z,8.33
2023-03-21T22:12:03.933Z,8.24
2023-03-21T22:14:31.796Z,8.16
2023-03-21T22:17:00.128Z,8.12
2023-03-21T22:19:28.432Z,7.95
2023-03-21T22:21:58.243Z,7.97
2023-03-21T22:24:26.354Z,8.06
2023-03-21T22:26:58.044Z,8.11
2023-03-21T22:29:32.117Z,8.21
2023-03-21T22:32:00.902Z,8.18
2023-03-21T22:34:31.245Z,8.16
2023-03-21T22:37:05.770Z,8.00
2023-03-21T22:39:34.664Z,7.91
2023-03-21T22:42:12.736Z,7.92
2023-03-21T22:44:45.762Z,8.02
2023-03-21T22:47:20.649Z,8.00
2023-03-21T22:49:49.128Z,8.01
2023-03-21T22:52:24.598Z,8.04
2023-03-21T22:54:53.017Z,7.98
2023-03-21T22:57:21.174Z,8.08
2023-03-21T22:59:50.443Z,8.24
2023-03-21T23:02:19.395Z,8.34
2023-03-21T23:04:47.243Z,8.35
2023-03-21T23:07:15.664Z,8.40
2023-03-21T23:09:43.801Z,8.43
2023-03-21T23:12:11.787Z,8.45
2023-03-21T23:14:39.650Z,8.39
2023-03-21T23:17:10.130Z,8.36
2023-03-21T23:19:40.867Z,8.28
2023-03-21T23:22:08.991Z,8.23
2023-03-21T23:24:36.842Z,8.19
2023-03-21T23:27:04.800Z,8.17
2023-03-21T23:29:32.651Z,8.18
2023-03-21T23:32:00.968Z,8.26
2023-03-21T23:34:30.365Z,8.32
2023-03-21T23:36:58.440Z,8.33
2023-03-21T23:39:26.496Z,8.39
2023-03-21T23:41:54.360Z,8.42
2023-03-21T23:44:22.213Z,8.36
2023-03-21T23:46:50.147Z,8.35
2023-03-21T23:49:18.225Z,8.41
2023-03-21T23:51:52.215Z,8.50
2023-03-21T23:54:20.089Z,8.51
2023-03-21T23:56:47.968Z,8.47
2023-03-21T23:59:26.496Z,8.47
